Adel, OR

8:35 PM PST on December 26, 2014 (GMT -0800)
RAWS BARREL SPRINGS NV US | Change Station
CLOSE
Current Station
Personal Weather Station
Location: Fort Bidwell, CA
Elevation: 5730 ft
Nearby Weather Stations

Elev 5730 ft 41.91 °N, 119.94 °W | Updated 36 minutes ago

Clear
Clear
16 °F
Feels Like 16 °F
N
1
Wind Variable Wind from SSE
Gusts 7.0 mph

Today
High -- | Low -- °F
--% Chance of Precip.
Yesterday
High -- | Low -- °F
Precip. -- in
7:26 AM 4:32 PM
Waxing Crescent, 32% visible
Pressure 30.26 in
Visibility 10.0 miles
Clouds Clear
Windchill 16 °F
Dew Point 11 °F
Humidity 80%
Rainfall 0.00 in
Snow Depth Not available.
UV 0 out of 12
Pollen .30 out of 12
Air Quality Not available.
Flu Activity Not available.
METAR KLKV 270415Z 36003KT 10SM CLR M06/M09 A3026 RMK AO1

More Conditions Fewer Conditions

Pressure 30.26 in
Visibility 10.0 miles
Clouds Clear
Windchill 16 °F
Dew Point 11 °F
Humidity 80%
Rainfall 0.00 in
Snow Depth Not available.
UV 0 out of 12
Pollen .30 out of 12
Air Quality Not available.
Flu Activity Not available.
METAR KLKV 270415Z 36003KT 10SM CLR M06/M09 A3026 RMK AO1

More Conditions Fewer Conditions

10-Day Weather Forecast

Almanac

Astronomy

Dec. 26, 2014 Rise Set
Actual Time
Civil Twilight
Nautical Twilight
Astronomical Twilight
Moon
Length of Visible Light
Length of Day
Tomorrow will be .
, % of the Moon is Illuminated

Today's Extremes

State Highs State Lows

Community

WunderPhotos

Upload Photos

1,780,847 photos uploaded!

WunderBlogs® & News

Nearby

Air Quality

  Air Quality AQ Index Pollutant
Not available.

Snow Depth

Station Depth Elevation

Earthquake Activity

City Distance Mag. Time & Date
Minimum magnitude displayed is 2.5.

Coastal Water Temperatures

Place Temperature

Nearby Weather Stations